Pagina principale
METAR-TAF:

METAR-TAF

Aeroporti :

Aeroporto di Jakutsk

Jakutsk, Russia

latitudine: 62-01N, longitudine: 129-43E, altezza: 103 m

Osservazione

Il bollettino è stato emesso 31 minuti fa, alle 06:00 UTC
Vento 12 kt da ovest/nord-ovest
Temperature 12°C
Umidità 47%
Pressione 1010 hPa
Visibilità 10 km o più
nessuna nube inferiore a 1500 m e nessun cumulonembo

METAR: UEEE 230600Z 29006MPS CAVOK 12/01 Q1010 R23L/290155 NOSIG RMK QFE749

Ora: 15:31 (06:31 UTC)

Previsione

Il bollettino è stato emesso 1 ora e 31 minuti fa, alle 05:00 UTC
Previsione valida dal 23 alle 06 UTC al 24 alle 12 UTC
Vento 12 kt da ovest/nord-ovest con raffiche fino a 23 kt
Visibilità 10 km o più
Nubi sparse ad un'altezza di 3000 ft, Cumulonembo.
Nuvoloso ad un'altezza di 10000 ft
Temporaneamente
dal 23 alle 06 UTC al 23 alle 11 UTC
rovesci di pioggia

TAF: UEEE 230500Z 2306/2412 30006G12MPS 9999 SCT030CB BKN100 TEMPO 2306/2311 -SHRA

Osservazioni e previsioni meteorologiche di più di 4000 aeroporti (messaggi METAR e TAF).

Le stazioni disponibili sono rappresentate dai dischi gialli e rossi sulla carta.

Puntare il mouse per vedere il nome della stazione.

Clicca sopra per visualizzare le osservazioni e previsioni meteorologiche.

Per cambiare la mappa : fare clic sui pulsanti verdi con una croce nera per ingrandire, il pulsante verde con un trattino per diminuire, o sulla freccia verde per le mappe adiacenti.


METAR-TAF: